25分钟前
罗盘
风向 的 风向 030° 蒙特利尔皮埃尔·埃利奥特·特鲁多国际机场 06L/24R
风向 到 风: 17 千吨, 阵阵 25 千吨, 5 beaufort
0 0 0.17778093859221 500 0.32299085377319 1.500 0.47075341907445 3.000 0.62138884920159 5.000 0.8022287624727 8.000 0.90566318494517 10.000
FEW 1.200 ft
FEW 3.000 ft
BKN 6.500 ft
OVC 14.000 ft
METAR CYUL 261834Z 03017G25KT 15SM FEW012 FEW030 BKN065 OVC140 10/07 A2977 RMK SF1SC2SC3AC3 SF TR SLP084

METAR定义 | 嵌入

24小时趋势

航班类别VFRLIFR
温度10 °C6 °C
风速21 千吨0 千吨
能见度24 公里0 米

更多历史数据

下载我们的安卓应用程序

从你的主屏幕上轻松地访问你的航空天气。
只需一次付费,您就可以获得无广告的体验。

您会帮助我们保持Metar-Taf.com正常运行吗?
您的贡献有助于网站的进一步开发并支付费用。

没有更多广告

您是捐款5美元还是更多?然后,我们将永远不会再向您展示广告,这是我们永恒的感谢!
捐赠前先登录

METAR 蒙特利尔皮埃尔·埃利奥特·特鲁多国际机场

蒙特利尔皮埃尔·埃利奥特·特鲁多国际机场是Montréal,加拿大中的大型机场。 机场有{a,plural,=1{一条跑道} other{#跑道}}: 06R/24L, 06L/24R 和 10/28

该报告是针对2021年10月26日 14:34, 当地时间上的蒙特利尔皮埃尔·埃利奥特·特鲁多国际机场所做的。

机场观察

风来自北北东 (030°)方向,速度为17 千吨。 已测量25 千吨的阵风。

可见度为24 公里。

有几云在1.200 ft的高度, 几云在3.000 ft的高度, 碎云在6.500 ft的高度 和 乌云密布在14.000 ft的高度。 破损或更高的上限为6.500 ft。

温度为10 °C,阵风为5 °C。 露点为7 °C,相对湿度为82%。 海平面上的气压为1008 压力 (QNH)。

评论

  • 海平面压力为1008,4 压力 (SLP084)
  • SF1SC2SC3AC3 SF TR

白天

今天,太阳从07:26升起,在17:51降落。 这适用于蒙特利尔皮埃尔·埃利奥特·特鲁多国际机场,世界夏令时可能有所不同。 当地时间与世界标准时间之间的时差为-4 小时。 夏令时目前正在进行中。

公司介绍

我们没有关于这个机场的公司信息。

体会

到Vliegles.nl去找飞行课程,跳伞和其他飞行体验。 浏览页面,了解蒙特利尔皮埃尔·埃利奥特·特鲁多国际机场附近所有可用的活动。 你也可以使用搜索功能来寻找你所在地附近的特定飞行课程、跳伞或其他飞行体验。

您是否要在网站上蒙特利尔皮埃尔·埃利奥特·特鲁多国际机场飞行的天气? 阅读更多   自由!